Time;durP1;ratioP1;P1;durP2;ratioP2;P2;SDS_P1;SDS_P2;PMS_P1;PMS_P2;Temp;Humidity;BMP_temperature;BMP_pressure;BME280_temperature;BME280_humidity;BME280_pressure;Samples;Min_cycle;Max_cycle;Signal;HPM_P1;HPM_P2
2022/08/20 00:00:52;;;;;;;22.27;19.93;;;;;;;;;;5053713;28;20918;-72
2022/08/20 00:03:18;;;;;;;21.23;18.97;;;;;;;;;;5054892;28;20397;-72
2022/08/20 00:05:46;;;;;;;22.33;19.23;;;;;;;;;;5053430;28;20440;-74
2022/08/20 00:08:12;;;;;;;21.77;19.70;;;;;;;;;;5054833;28;20409;-72
2022/08/20 00:10:39;;;;;;;20.67;18.67;;;;;;;;;;5054776;28;20408;-73
2022/08/20 00:13:06;;;;;;;23.80;19.93;;;;;;;;;;5054548;28;20448;-72
2022/08/20 00:15:34;;;;;;;23.57;21.50;;;;;;;;;;5054599;28;20827;-73
2022/08/20 00:18:00;;;;;;;21.90;19.20;;;;;;;;;;5054583;28;20408;-74
2022/08/20 00:20:28;;;;;;;22.50;20.30;;;;;;;;;;5054513;28;20413;-72
2022/08/20 00:22:54;;;;;;;23.50;21.07;;;;;;;;;;5054448;28;20400;-72
2022/08/20 00:25:20;;;;;;;23.43;19.57;;;;;;;;;;5053118;28;20593;-72
2022/08/20 00:27:46;;;;;;;21.73;19.43;;;;;;;;;;5053122;28;20424;-73
2022/08/20 00:30:12;;;;;;;21.33;19.27;;;;;;;;;;5054242;28;20505;-72
2022/08/20 00:33:02;;;;;;;20.23;18.20;;;;;;;;;;5052851;28;20417;-73
2022/08/20 00:35:29;;;;;;;22.70;18.97;;;;;;;;;;5050989;28;20981;-73
2022/08/20 00:37:55;;;;;;;22.50;20.13;;;;;;;;;;5054139;28;20419;-73
2022/08/20 00:40:24;;;;;;;22.57;20.33;;;;;;;;;;5052720;28;20426;-74
2022/08/20 00:42:52;;;;;;;24.13;21.53;;;;;;;;;;5054069;28;20469;-73
2022/08/20 00:45:19;;;;;;;23.97;21.50;;;;;;;;;;5053936;28;20463;-73
2022/08/20 00:47:45;;;;;;;22.60;20.33;;;;;;;;;;5053870;28;20490;-73
2022/08/20 00:50:14;;;;;;;22.13;19.87;;;;;;;;;;5053833;28;20444;-73
2022/08/20 00:52:41;;;;;;;21.03;18.63;;;;;;;;;;5052725;28;20793;-73
2022/08/20 00:55:08;;;;;;;22.50;19.10;;;;;;;;;;5052376;28;20504;-73
2022/08/20 00:57:36;;;;;;;20.33;18.53;;;;;;;;;;5052507;28;20444;-73
2022/08/20 01:00:05;;;;;;;22.03;18.07;;;;;;;;;;5053727;28;20428;-74
2022/08/20 01:02:31;;;;;;;30.90;17.57;;;;;;;;;;5053817;28;20461;-73
2022/08/20 01:04:58;;;;;;;21.20;19.30;;;;;;;;;;5052270;28;20500;-73
2022/08/20 01:07:32;;;;;;;21.67;19.43;;;;;;;;;;5053640;28;20411;-73
2022/08/20 01:09:59;;;;;;;20.97;18.63;;;;;;;;;;5053546;28;20394;-72
2022/08/20 01:12:26;;;;;;;19.20;17.27;;;;;;;;;;5053526;28;20428;-73
2022/08/20 01:14:52;;;;;;;21.50;19.40;;;;;;;;;;5053293;28;20486;-73
2022/08/20 01:17:22;;;;;;;24.90;18.60;;;;;;;;;;5053449;28;20454;-74
2022/08/20 01:19:55;;;;;;;20.03;18.03;;;;;;;;;;5053474;28;20541;-74
2022/08/20 01:25:13;;;;;;;20.50;18.50;;;;;;;;;;5053480;28;20765;-73
2022/08/20 01:27:40;;;;;;;18.47;16.97;;;;;;;;;;5053429;28;20531;-73
2022/08/20 01:30:07;;;;;;;20.60;18.27;;;;;;;;;;5053451;28;20432;-74
2022/08/20 01:32:33;;;;;;;25.53;19.93;;;;;;;;;;5053224;28;20429;-73
2022/08/20 01:34:59;;;;;;;18.97;17.27;;;;;;;;;;5053231;28;20481;-73
2022/08/20 01:37:25;;;;;;;21.83;19.83;;;;;;;;;;5053209;28;20498;-74
2022/08/20 01:39:51;;;;;;;20.63;18.43;;;;;;;;;;5053252;28;20413;-74
2022/08/20 01:42:25;;;;;;;22.27;19.30;;;;;;;;;;5053265;28;20405;-74
2022/08/20 01:44:51;;;;;;;25.90;20.13;;;;;;;;;;5053242;28;20971;-73
2022/08/20 01:47:25;;;;;;;20.73;18.33;;;;;;;;;;5053131;28;20417;-73
2022/08/20 01:49:53;;;;;;;20.80;18.97;;;;;;;;;;5053273;28;20403;-73
2022/08/20 01:52:28;;;;;;;20.97;19.07;;;;;;;;;;5053199;28;20779;-73
2022/08/20 01:54:54;;;;;;;22.13;18.47;;;;;;;;;;5051804;28;20554;-75
2022/08/20 01:57:25;;;;;;;27.27;19.00;;;;;;;;;;5053065;28;20405;-74
2022/08/20 01:59:51;;;;;;;20.03;17.33;;;;;;;;;;5051722;28;20424;-75
2022/08/20 02:02:18;;;;;;;19.83;18.20;;;;;;;;;;5053019;28;20422;-73
2022/08/20 02:04:44;;;;;;;22.00;19.83;;;;;;;;;;5053028;28;20471;-73
2022/08/20 02:07:20;;;;;;;24.60;18.70;;;;;;;;;;5053002;28;20412;-73
2022/08/20 02:09:46;;;;;;;19.70;17.27;;;;;;;;;;5052952;28;20421;-73
2022/08/20 02:12:13;;;;;;;21.70;19.60;;;;;;;;;;5052968;28;20501;-73
2022/08/20 02:14:41;;;;;;;20.20;18.10;;;;;;;;;;5052675;28;20497;-73
2022/08/20 02:17:07;;;;;;;20.23;17.97;;;;;;;;;;5052789;28;20418;-73
2022/08/20 02:19:37;;;;;;;19.33;17.67;;;;;;;;;;5052848;28;20418;-73
2022/08/20 02:22:08;;;;;;;18.60;16.80;;;;;;;;;;5052848;28;20409;-73
2022/08/20 02:24:34;;;;;;;23.87;18.40;;;;;;;;;;5052837;28;20414;-73
2022/08/20 02:27:00;;;;;;;20.60;18.70;;;;;;;;;;5052828;28;20460;-73
2022/08/20 02:29:26;;;;;;;19.17;17.23;;;;;;;;;;5052784;28;20963;-73
2022/08/20 02:31:53;;;;;;;19.37;17.33;;;;;;;;;;5052815;28;20444;-73
2022/08/20 02:34:19;;;;;;;18.80;17.03;;;;;;;;;;5055567;28;20461;-74
2022/08/20 02:36:48;;;;;;;19.60;16.83;;;;;;;;;;5056366;28;20422;-74
2022/08/20 02:39:14;;;;;;;18.87;16.90;;;;;;;;;;5055080;28;20855;-73
2022/08/20 02:41:40;;;;;;;19.53;16.27;;;;;;;;;;5055077;28;20842;-73
2022/08/20 02:44:06;;;;;;;19.57;17.60;;;;;;;;;;5055004;28;20411;-73
2022/08/20 02:46:33;;;;;;;19.73;17.53;;;;;;;;;;5056143;28;20894;-73
2022/08/20 02:48:59;;;;;;;20.53;18.33;;;;;;;;;;5054882;28;20517;-73
2022/08/20 02:51:25;;;;;;;18.67;16.80;;;;;;;;;;5056100;28;20409;-74
2022/08/20 02:53:51;;;;;;;19.60;17.80;;;;;;;;;;5055967;28;20474;-73
2022/08/20 02:56:19;;;;;;;18.60;16.60;;;;;;;;;;5054802;28;20500;-72
2022/08/20 02:58:45;;;;;;;20.20;18.40;;;;;;;;;;5056022;28;20412;-72
2022/08/20 03:01:12;;;;;;;19.50;17.53;;;;;;;;;;5054516;28;20416;-73
2022/08/20 03:03:39;;;;;;;24.53;18.70;;;;;;;;;;5055793;28;20411;-73
2022/08/20 03:06:06;;;;;;;19.27;16.93;;;;;;;;;;5055793;28;20782;-73
2022/08/20 03:08:33;;;;;;;17.90;16.27;;;;;;;;;;5054460;28;20442;-73
2022/08/20 03:10:59;;;;;;;19.23;17.43;;;;;;;;;;5055735;28;20987;-73
2022/08/20 03:13:25;;;;;;;18.30;16.57;;;;;;;;;;5055559;28;20411;-74
2022/08/20 03:15:58;;;;;;;17.93;16.13;;;;;;;;;;5055557;28;20817;-73
2022/08/20 03:18:25;;;;;;;19.03;17.27;;;;;;;;;;5055637;28;20415;-73
2022/08/20 03:20:51;;;;;;;17.70;15.93;;;;;;;;;;5055602;28;20412;-74
2022/08/20 03:23:18;;;;;;;18.30;16.70;;;;;;;;;;5055543;28;20418;-73
2022/08/20 03:25:44;;;;;;;22.30;16.80;;;;;;;;;;5055525;28;20906;-75
2022/08/20 03:28:10;;;;;;;21.93;16.53;;;;;;;;;;5055446;28;20415;-73
2022/08/20 03:30:37;;;;;;;20.53;17.00;;;;;;;;;;5055455;28;21016;-73
2022/08/20 03:33:03;;;;;;;18.90;17.03;;;;;;;;;;5055277;28;20422;-73
2022/08/20 03:35:30;;;;;;;16.80;15.40;;;;;;;;;;5055166;28;20805;-73
2022/08/20 03:37:56;;;;;;;18.90;16.93;;;;;;;;;;5055262;28;20407;-73
2022/08/20 03:40:24;;;;;;;16.43;14.93;;;;;;;;;;5055197;28;20413;-74
2022/08/20 03:42:51;;;;;;;16.30;15.10;;;;;;;;;;5055161;28;20413;-73
2022/08/20 03:45:18;;;;;;;17.10;15.10;;;;;;;;;;5053513;28;20935;-72
2022/08/20 03:47:44;;;;;;;19.50;16.47;;;;;;;;;;5055027;28;20951;-74
2022/08/20 03:50:12;;;;;;;17.77;16.30;;;;;;;;;;5054999;28;20411;-72
2022/08/20 03:52:38;;;;;;;19.70;15.27;;;;;;;;;;5054957;28;20421;-72
2022/08/20 03:55:05;;;;;;;19.17;17.20;;;;;;;;;;5054830;28;20471;-73
2022/08/20 03:57:32;;;;;;;20.10;16.70;;;;;;;;;;5053568;28;20434;-73
2022/08/20 03:59:58;;;;;;;17.53;16.03;;;;;;;;;;5054837;28;20410;-72
2022/08/20 04:02:24;;;;;;;18.83;17.10;;;;;;;;;;5054772;28;20525;-74
2022/08/20 04:04:50;;;;;;;18.93;17.10;;;;;;;;;;5054772;28;20795;-73
2022/08/20 04:07:24;;;;;;;18.50;16.70;;;;;;;;;;5054660;28;20421;-73
2022/08/20 04:09:50;;;;;;;19.87;17.83;;;;;;;;;;5054652;28;20402;-73
2022/08/20 04:12:16;;;;;;;17.43;15.90;;;;;;;;;;5054559;28;20501;-72
2022/08/20 04:14:42;;;;;;;19.33;17.63;;;;;;;;;;5053055;28;21011;-73
2022/08/20 04:17:10;;;;;;;19.17;17.10;;;;;;;;;;5054443;28;20421;-73
2022/08/20 04:19:36;;;;;;;19.23;17.43;;;;;;;;;;5054445;28;20415;-74
2022/08/20 04:22:03;;;;;;;19.47;17.87;;;;;;;;;;5054394;28;20471;-73
2022/08/20 04:24:29;;;;;;;18.77;16.90;;;;;;;;;;5054310;28;20426;-73
2022/08/20 04:26:55;;;;;;;19.10;17.17;;;;;;;;;;5053421;28;20419;-72
2022/08/20 04:29:24;;;;;;;18.70;16.77;;;;;;;;;;5054263;28;20437;-72
2022/08/20 04:31:51;;;;;;;18.53;16.93;;;;;;;;;;5053133;28;20559;-72
2022/08/20 04:34:18;;;;;;;19.47;17.57;;;;;;;;;;5054044;28;20461;-72
2022/08/20 04:36:46;;;;;;;26.83;17.47;;;;;;;;;;5054106;28;20416;-72
2022/08/20 04:39:12;;;;;;;19.60;17.60;;;;;;;;;;5052845;28;20410;-73
2022/08/20 04:41:38;;;;;;;18.60;16.53;;;;;;;;;;5054039;28;20463;-73
2022/08/20 04:44:04;;;;;;;21.20;16.37;;;;;;;;;;5054056;28;20440;-72
2022/08/20 04:46:31;;;;;;;21.20;17.70;;;;;;;;;;5052606;28;20415;-73
2022/08/20 04:48:59;;;;;;;18.10;16.50;;;;;;;;;;5053916;28;20908;-73
2022/08/20 04:51:25;;;;;;;21.33;17.13;;;;;;;;;;5053846;28;20461;-73
2022/08/20 04:53:52;;;;;;;18.10;16.20;;;;;;;;;;5053735;28;20806;-72
2022/08/20 04:56:22;;;;;;;17.67;15.80;;;;;;;;;;5053121;28;20461;-73
2022/08/20 04:58:49;;;;;;;19.07;16.40;;;;;;;;;;5053717;28;20400;-73
2022/08/20 05:01:15;;;;;;;18.50;16.80;;;;;;;;;;5052443;28;20526;-73
2022/08/20 05:03:42;;;;;;;17.10;15.60;;;;;;;;;;5053595;28;20414;-73
2022/08/20 05:06:09;;;;;;;17.63;15.37;;;;;;;;;;5053690;28;20454;-73
2022/08/20 05:08:37;;;;;;;17.37;15.87;;;;;;;;;;5053640;28;20417;-73
2022/08/20 05:11:03;;;;;;;19.30;17.43;;;;;;;;;;5053536;28;20507;-74
2022/08/20 05:13:29;;;;;;;18.67;17.00;;;;;;;;;;5051934;28;20474;-73
2022/08/20 05:15:56;;;;;;;20.37;17.40;;;;;;;;;;5053476;28;20412;-73
2022/08/20 05:18:25;;;;;;;17.60;16.00;;;;;;;;;;5053750;28;20461;-72
2022/08/20 05:20:51;;;;;;;17.47;15.93;;;;;;;;;;5053497;28;20785;-74
2022/08/20 05:23:18;;;;;;;15.53;14.37;;;;;;;;;;5053397;28;20414;-73
2022/08/20 05:25:46;;;;;;;14.87;13.67;;;;;;;;;;5053332;28;20488;-74
2022/08/20 05:28:23;;;;;;;14.20;12.90;;;;;;;;;;5052095;28;20420;-73
2022/08/20 05:30:50;;;;;;;13.20;12.13;;;;;;;;;;5051992;28;20983;-73
2022/08/20 05:33:18;;;;;;;12.40;11.40;;;;;;;;;;5053361;28;20753;-73
2022/08/20 05:35:45;;;;;;;13.90;12.60;;;;;;;;;;5053188;28;20472;-74
2022/08/20 05:38:13;;;;;;;19.53;12.57;;;;;;;;;;5053257;28;20401;-73
2022/08/20 05:40:39;;;;;;;15.53;11.97;;;;;;;;;;5053475;28;20417;-73
2022/08/20 05:43:05;;;;;;;17.73;12.60;;;;;;;;;;5053367;28;20411;-73
2022/08/20 05:45:32;;;;;;;11.17;10.20;;;;;;;;;;5053174;28;20415;-73
2022/08/20 05:47:58;;;;;;;12.50;11.10;;;;;;;;;;5053125;28;20513;-73
2022/08/20 05:50:24;;;;;;;12.90;11.50;;;;;;;;;;5053137;28;20485;-73
2022/08/20 05:52:50;;;;;;;12.37;11.07;;;;;;;;;;5051180;28;20450;-74
2022/08/20 05:55:16;;;;;;;15.60;11.30;;;;;;;;;;5040625;28;20890;-73
2022/08/20 05:57:44;;;;;;;14.67;10.27;;;;;;;;;;5033100;28;20406;-73
2022/08/20 06:00:12;;;;;;;10.00;9.20;;;;;;;;;;5033125;28;20414;-73
2022/08/20 06:05:23;;;;;;;9.90;9.07;;;;;;;;;;5033074;28;20416;-73
2022/08/20 06:07:49;;;;;;;9.90;9.20;;;;;;;;;;5034115;28;20905;-74
2022/08/20 06:10:15;;;;;;;9.30;8.70;;;;;;;;;;5036950;28;20897;-73
2022/08/20 06:12:43;;;;;;;8.80;8.00;;;;;;;;;;5036914;28;20420;-73
2022/08/20 06:15:09;;;;;;;8.47;7.40;;;;;;;;;;5036577;28;20532;-74
2022/08/20 06:17:35;;;;;;;8.67;7.90;;;;;;;;;;5036685;28;20457;-73
2022/08/20 06:20:05;;;;;;;8.37;7.60;;;;;;;;;;5036783;28;20465;-74
2022/08/20 06:22:31;;;;;;;11.50;7.13;;;;;;;;;;5036794;28;20407;-74
2022/08/20 06:24:57;;;;;;;7.37;6.87;;;;;;;;;;5038552;28;20410;-74
2022/08/20 06:27:25;;;;;;;7.90;7.30;;;;;;;;;;5055330;28;20432;-74
2022/08/20 06:29:50;;;;;;;6.83;6.33;;;;;;;;;;5056591;28;20403;-73
2022/08/20 06:32:18;;;;;;;7.17;6.50;;;;;;;;;;5056377;28;20429;-74
2022/08/20 06:34:44;;;;;;;7.67;6.97;;;;;;;;;;5056372;28;20467;-73
2022/08/20 06:37:17;;;;;;;6.60;6.07;;;;;;;;;;5055151;28;20428;-73
2022/08/20 06:39:43;;;;;;;9.23;7.13;;;;;;;;;;5056368;28;20413;-73
2022/08/20 06:42:10;;;;;;;10.03;6.70;;;;;;;;;;5055084;28;20468;-74
2022/08/20 06:44:36;;;;;;;7.38;5.63;;;;;;;;;;5050808;28;20431;-79
2022/08/20 06:47:04;;;;;;;7.50;6.70;;;;;;;;;;5050382;28;20183;-74
2022/08/20 06:49:30;;;;;;;5.23;4.93;;;;;;;;;;5055992;28;20462;-72
2022/08/20 06:51:56;;;;;;;5.80;5.40;;;;;;;;;;5055368;28;20411;-74
2022/08/20 06:54:23;;;;;;;5.73;4.77;;;;;;;;;;5053336;28;20472;-72
2022/08/20 06:56:53;;;;;;;8.00;5.37;;;;;;;;;;5055695;28;20428;-73
2022/08/20 06:59:19;;;;;;;5.97;5.13;;;;;;;;;;5055819;28;20433;-74
2022/08/20 07:01:45;;;;;;;5.33;3.93;;;;;;;;;;5061576;28;20432;-72
2022/08/20 07:04:11;;;;;;;5.53;5.23;;;;;;;;;;5055627;28;20418;-72
2022/08/20 07:06:37;;;;;;;16.50;14.90;;;;;;;;;;5051279;28;20495;-71
2022/08/20 07:09:03;;;;;;;6.13;5.60;;;;;;;;;;5054837;28;20496;-74
2022/08/20 07:11:29;;;;;;;6.67;6.23;;;;;;;;;;5054209;28;20446;-71
2022/08/20 07:13:57;;;;;;;5.53;5.13;;;;;;;;;;5054208;28;20485;-75
2022/08/20 07:16:23;;;;;;;5.40;4.30;;;;;;;;;;5054423;28;20855;-72
2022/08/20 07:18:49;;;;;;;5.00;4.57;;;;;;;;;;5054870;28;20414;-73
2022/08/20 07:21:16;;;;;;;5.13;4.83;;;;;;;;;;5054416;28;20427;-76
2022/08/20 07:23:42;;;;;;;4.37;4.17;;;;;;;;;;5055502;28;20417;-73
2022/08/20 07:26:08;;;;;;;3.63;3.53;;;;;;;;;;5054248;28;20418;-75
2022/08/20 07:28:34;;;;;;;4.43;4.23;;;;;;;;;;5054252;28;20505;-75
2022/08/20 07:33:44;;;;;;;7.40;3.97;;;;;;;;;;5055260;28;20838;-76
2022/08/20 07:36:11;;;;;;;2.33;2.33;;;;;;;;;;5055415;28;20415;-77
2022/08/20 07:38:37;;;;;;;3.07;3.07;;;;;;;;;;5055152;28;20422;-75
2022/08/20 07:41:06;;;;;;;3.20;3.10;;;;;;;;;;5047483;28;20475;-78
2022/08/20 07:43:32;;;;;;;3.50;3.50;;;;;;;;;;5034713;28;20405;-79
2022/08/20 07:46:08;;;;;;;1.77;1.77;;;;;;;;;;5034571;28;20507;-79
2022/08/20 07:48:35;;;;;;;1.93;1.93;;;;;;;;;;5033999;28;20459;-74
2022/08/20 07:51:03;;;;;;;1.60;1.37;;;;;;;;;;5040495;28;20420;-74
2022/08/20 07:53:29;;;;;;;2.20;1.47;;;;;;;;;;5052789;28;20409;-77
2022/08/20 07:55:56;;;;;;;4.40;1.60;;;;;;;;;;5038872;28;20917;-75
2022/08/20 07:58:23;;;;;;;1.40;1.40;;;;;;;;;;5033976;28;20906;-78
2022/08/20 08:00:50;;;;;;;3.50;3.40;;;;;;;;;;5034274;28;20909;-75
2022/08/20 08:03:16;;;;;;;2.27;2.17;;;;;;;;;;5034143;28;20421;-75
2022/08/20 08:05:45;;;;;;;1.40;1.30;;;;;;;;;;5034416;28;20408;-75
2022/08/20 08:08:12;;;;;;;1.60;1.60;;;;;;;;;;5033758;28;20508;-75
2022/08/20 08:10:39;;;;;;;1.30;1.30;;;;;;;;;;5032882;28;20476;-76
2022/08/20 08:13:07;;;;;;;1.00;1.00;;;;;;;;;;5049743;28;20438;-74
2022/08/20 08:15:36;;;;;;;1.37;1.37;;;;;;;;;;5046435;28;20500;-71
2022/08/20 08:18:06;;;;;;;1.10;1.10;;;;;;;;;;5033603;28;20973;-72
2022/08/20 08:20:33;;;;;;;1.63;1.53;;;;;;;;;;5033826;28;20446;-70
2022/08/20 08:22:59;;;;;;;1.97;1.63;;;;;;;;;;5033827;28;20415;-72
2022/08/20 08:25:25;;;;;;;1.67;1.50;;;;;;;;;;5034203;28;20403;-75
2022/08/20 08:27:51;;;;;;;2.00;1.70;;;;;;;;;;5033331;28;20486;-71
2022/08/20 08:30:17;;;;;;;1.47;1.47;;;;;;;;;;5032526;28;20871;-70
2022/08/20 08:35:31;;;;;;;1.33;1.30;;;;;;;;;;5033954;28;20506;-71
2022/08/20 08:38:01;;;;;;;1.10;1.10;;;;;;;;;;5034162;28;20408;-73
2022/08/20 08:40:28;;;;;;;1.30;1.30;;;;;;;;;;5034258;28;20411;-71
2022/08/20 08:42:56;;;;;;;1.67;1.10;;;;;;;;;;5034116;28;20773;-72
2022/08/20 08:45:24;;;;;;;1.30;1.30;;;;;;;;;;5032841;28;20425;-72
2022/08/20 08:47:50;;;;;;;1.70;1.60;;;;;;;;;;5042009;28;20425;-71
2022/08/20 08:50:21;;;;;;;1.50;1.50;;;;;;;;;;5053039;28;20417;-70
2022/08/20 08:52:49;;;;;;;1.23;1.23;;;;;;;;;;5047827;28;20425;-77
2022/08/20 08:55:19;;;;;;;1.47;1.47;;;;;;;;;;5046663;28;20494;-74
2022/08/20 08:57:46;;;;;;;2.40;1.20;;;;;;;;;;5039829;28;20790;-74
2022/08/20 09:00:14;;;;;;;1.60;1.50;;;;;;;;;;5053897;28;20848;-76
2022/08/20 09:02:52;;;;;;;1.90;1.63;;;;;;;;;;5053313;28;20520;-74
2022/08/20 09:05:20;;;;;;;2.00;1.90;;;;;;;;;;5052870;28;20405;-75
2022/08/20 09:07:48;;;;;;;1.87;1.87;;;;;;;;;;5052896;28;20412;-76
2022/08/20 09:10:16;;;;;;;1.70;1.60;;;;;;;;;;5051816;28;20954;-76
2022/08/20 09:12:43;;;;;;;3.70;1.80;;;;;;;;;;5053073;28;20490;-76
2022/08/20 09:15:09;;;;;;;1.87;1.77;;;;;;;;;;5052368;28;20500;-75
2022/08/20 09:17:36;;;;;;;2.00;1.90;;;;;;;;;;5052644;28;20809;-71
2022/08/20 09:20:01;;;;;;;1.80;1.70;;;;;;;;;;5050117;28;20535;-71
2022/08/20 09:22:27;;;;;;;1.63;1.63;;;;;;;;;;5053387;28;20444;-72
2022/08/20 09:24:55;;;;;;;1.90;1.80;;;;;;;;;;5051963;28;20421;-73
2022/08/20 09:27:21;;;;;;;1.90;1.90;;;;;;;;;;5051680;28;20437;-72
2022/08/20 09:29:47;;;;;;;1.70;1.70;;;;;;;;;;5053492;28;20418;-73
2022/08/20 09:32:17;;;;;;;1.50;1.50;;;;;;;;;;5052044;28;20424;-73
2022/08/20 09:34:45;;;;;;;2.40;2.20;;;;;;;;;;5053239;28;20556;-73
2022/08/20 09:37:11;;;;;;;1.73;1.73;;;;;;;;;;5053305;28;20417;-72
2022/08/20 09:39:37;;;;;;;1.57;1.57;;;;;;;;;;5053277;28;20413;-73
2022/08/20 09:42:07;;;;;;;4.67;1.97;;;;;;;;;;5054488;28;20406;-72
2022/08/20 09:44:33;;;;;;;1.73;1.60;;;;;;;;;;5057537;28;20440;-73
2022/08/20 09:46:59;;;;;;;1.50;1.50;;;;;;;;;;5056018;28;20430;-75
2022/08/20 09:49:25;;;;;;;1.90;1.90;;;;;;;;;;5057442;28;20410;-75
2022/08/20 09:51:51;;;;;;;1.30;1.30;;;;;;;;;;5057489;28;20420;-73
2022/08/20 09:54:17;;;;;;;1.90;1.90;;;;;;;;;;5057243;28;20874;-72
2022/08/20 09:56:43;;;;;;;2.30;1.60;;;;;;;;;;5055903;28;20422;-75
2022/08/20 09:59:09;;;;;;;2.40;2.30;;;;;;;;;;5057180;28;20497;-74
2022/08/20 10:01:35;;;;;;;3.57;1.77;;;;;;;;;;5055749;28;20429;-72
2022/08/20 10:04:01;;;;;;;2.10;1.73;;;;;;;;;;5056995;28;20781;-74
2022/08/20 10:06:27;;;;;;;1.53;1.50;;;;;;;;;;5056055;28;20478;-75
2022/08/20 10:08:52;;;;;;;6.10;1.70;;;;;;;;;;5056936;28;20446;-77
2022/08/20 10:11:18;;;;;;;3.87;1.63;;;;;;;;;;5057070;28;20416;-74
2022/08/20 10:13:45;;;;;;;1.70;1.60;;;;;;;;;;5056615;28;20929;-73
2022/08/20 10:16:11;;;;;;;2.50;1.60;;;;;;;;;;5056927;28;20447;-71
2022/08/20 10:18:37;;;;;;;1.50;1.40;;;;;;;;;;5055478;28;20481;-73
2022/08/20 10:21:03;;;;;;;1.20;1.20;;;;;;;;;;5056828;28;20420;-73
2022/08/20 10:23:29;;;;;;;1.40;1.40;;;;;;;;;;5056595;28;20399;-73
2022/08/20 10:25:55;;;;;;;1.40;1.40;;;;;;;;;;5056608;28;20879;-73
2022/08/20 10:28:21;;;;;;;3.20;1.37;;;;;;;;;;5055336;28;20452;-73
2022/08/20 10:30:47;;;;;;;1.37;1.20;;;;;;;;;;5055259;28;20476;-73
2022/08/20 10:33:13;;;;;;;2.10;1.00;;;;;;;;;;5056449;28;20911;-72
2022/08/20 10:35:39;;;;;;;0.93;0.93;;;;;;;;;;5055180;28;20837;-72
2022/08/20 10:38:05;;;;;;;1.10;1.00;;;;;;;;;;5056520;28;20406;-76
2022/08/20 10:40:31;;;;;;;1.47;1.20;;;;;;;;;;5056324;28;20992;-73
2022/08/20 10:42:57;;;;;;;0.80;0.80;;;;;;;;;;5056319;28;20413;-72
2022/08/20 10:45:24;;;;;;;0.87;0.87;;;;;;;;;;5056265;28;20502;-72
2022/08/20 10:47:50;;;;;;;3.23;1.43;;;;;;;;;;5056218;28;20871;-72
2022/08/20 10:50:18;;;;;;;1.30;1.30;;;;;;;;;;5056216;28;20418;-72
2022/08/20 10:52:45;;;;;;;1.10;1.10;;;;;;;;;;5056106;28;21011;-72
2022/08/20 10:55:11;;;;;;;1.20;1.10;;;;;;;;;;5053870;28;20487;-72
2022/08/20 10:57:38;;;;;;;0.80;0.80;;;;;;;;;;5056564;28;20775;-74
2022/08/20 11:00:06;;;;;;;0.83;0.83;;;;;;;;;;5056077;28;20960;-75
2022/08/20 11:02:32;;;;;;;0.70;0.70;;;;;;;;;;5055911;28;20426;-72
2022/08/20 11:04:58;;;;;;;0.80;0.80;;;;;;;;;;5055892;28;20410;-71
2022/08/20 11:07:31;;;;;;;1.60;0.73;;;;;;;;;;5055852;28;20413;-72
2022/08/20 11:09:58;;;;;;;0.80;0.80;;;;;;;;;;5055892;28;20436;-72
2022/08/20 11:12:24;;;;;;;0.90;0.83;;;;;;;;;;5055748;28;20427;-72
2022/08/20 11:14:51;;;;;;;1.10;1.10;;;;;;;;;;5055519;28;20562;-72
2022/08/20 11:17:25;;;;;;;0.80;0.80;;;;;;;;;;5055644;28;20514;-72
2022/08/20 11:19:51;;;;;;;7.43;1.00;;;;;;;;;;5055607;28;20446;-72
2022/08/20 11:22:18;;;;;;;0.90;0.90;;;;;;;;;;5055690;28;20410;-72
2022/08/20 11:24:43;;;;;;;2.37;0.90;;;;;;;;;;5055647;28;20413;-72
2022/08/20 11:27:10;;;;;;;1.13;1.07;;;;;;;;;;5055493;28;20456;-74
2022/08/20 11:29:37;;;;;;;1.10;1.10;;;;;;;;;;5055475;28;20776;-74
2022/08/20 11:32:03;;;;;;;1.30;1.30;;;;;;;;;;5055391;28;20406;-73
2022/08/20 11:34:29;;;;;;;1.13;1.03;;;;;;;;;;5055359;28;20474;-73
2022/08/20 11:36:57;;;;;;;1.03;1.03;;;;;;;;;;5055319;28;20430;-72
2022/08/20 11:39:23;;;;;;;1.07;1.07;;;;;;;;;;5053974;28;20446;-76
2022/08/20 11:41:49;;;;;;;1.23;1.13;;;;;;;;;;5055365;28;20898;-71
2022/08/20 11:44:15;;;;;;;0.80;0.80;;;;;;;;;;5055201;28;20888;-71
2022/08/20 11:46:41;;;;;;;0.80;0.80;;;;;;;;;;5054981;28;20415;-72
2022/08/20 11:49:07;;;;;;;0.90;0.90;;;;;;;;;;5055133;28;20412;-74
2022/08/20 11:51:33;;;;;;;0.97;0.97;;;;;;;;;;5055000;28;20410;-73
2022/08/20 11:53:59;;;;;;;1.10;1.00;;;;;;;;;;5055042;28;20456;-73
2022/08/20 11:56:25;;;;;;;0.70;0.70;;;;;;;;;;5054924;28;20425;-71
2022/08/20 11:58:52;;;;;;;0.80;0.80;;;;;;;;;;5054906;28;20399;-72
2022/08/20 12:01:18;;;;;;;0.90;0.80;;;;;;;;;;5054860;28;20799;-72
2022/08/20 12:03:44;;;;;;;0.90;0.80;;;;;;;;;;5054764;28;20452;-72
2022/08/20 12:06:10;;;;;;;0.93;0.50;;;;;;;;;;5054490;28;20501;-71
2022/08/20 12:08:36;;;;;;;0.83;0.83;;;;;;;;;;5054977;28;20495;-75
2022/08/20 12:11:02;;;;;;;0.80;0.80;;;;;;;;;;5053661;28;20433;-73
2022/08/20 12:13:29;;;;;;;0.80;0.80;;;;;;;;;;5053300;28;20453;-71
2022/08/20 12:15:55;;;;;;;0.70;0.70;;;;;;;;;;5054534;28;20879;-72
2022/08/20 12:18:22;;;;;;;5.30;0.90;;;;;;;;;;5054452;28;20897;-72
2022/08/20 12:20:48;;;;;;;0.70;0.70;;;;;;;;;;5054480;28;20413;-72
2022/08/20 12:23:14;;;;;;;0.77;0.77;;;;;;;;;;5054457;28;20482;-71
2022/08/20 12:25:40;;;;;;;0.93;0.70;;;;;;;;;;5054368;28;20414;-71
2022/08/20 12:28:06;;;;;;;0.70;0.70;;;;;;;;;;5053043;28;20425;-71
2022/08/20 12:30:32;;;;;;;2.10;0.80;;;;;;;;;;5054215;28;20917;-75
2022/08/20 12:32:58;;;;;;;0.60;0.60;;;;;;;;;;5053985;28;20475;-72
2022/08/20 12:35:25;;;;;;;0.70;0.70;;;;;;;;;;5053845;28;20476;-72
2022/08/20 12:37:51;;;;;;;1.37;0.53;;;;;;;;;;5054028;28;20410;-72
2022/08/20 12:40:19;;;;;;;1.63;0.80;;;;;;;;;;5054060;28;20932;-72
2022/08/20 12:42:45;;;;;;;0.70;0.70;;;;;;;;;;5052803;28;20457;-71
2022/08/20 12:45:11;;;;;;;1.00;1.00;;;;;;;;;;5054017;28;20481;-72
2022/08/20 12:47:40;;;;;;;0.73;0.73;;;;;;;;;;5053937;28;20764;-72
2022/08/20 12:50:10;;;;;;;0.97;0.97;;;;;;;;;;5053969;28;20397;-71
2022/08/20 12:52:36;;;;;;;0.90;0.90;;;;;;;;;;5053867;28;20433;-72
2022/08/20 12:55:04;;;;;;;1.67;0.90;;;;;;;;;;5050252;28;20472;-72
2022/08/20 12:57:38;;;;;;;1.00;1.00;;;;;;;;;;5045623;28;20542;-73
2022/08/20 13:00:06;;;;;;;0.90;0.90;;;;;;;;;;5048837;28;20520;-73
2022/08/20 13:02:32;;;;;;;0.77;0.77;;;;;;;;;;5049083;28;20455;-72
2022/08/20 13:04:58;;;;;;;1.23;1.10;;;;;;;;;;5052501;28;20464;-73
2022/08/20 13:07:24;;;;;;;0.87;0.87;;;;;;;;;;5051969;28;20450;-72
2022/08/20 13:09:50;;;;;;;3.13;0.90;;;;;;;;;;5051777;28;20434;-73
2022/08/20 13:12:16;;;;;;;1.00;1.00;;;;;;;;;;5053002;28;20797;-70
2022/08/20 13:14:42;;;;;;;0.80;0.80;;;;;;;;;;5052684;28;20495;-75
2022/08/20 13:17:09;;;;;;;3.27;1.10;;;;;;;;;;5052922;28;20419;-69
2022/08/20 13:19:36;;;;;;;3.77;1.17;;;;;;;;;;5049693;28;20450;-69
2022/08/20 13:22:02;;;;;;;1.20;1.20;;;;;;;;;;5053428;28;20427;-72
2022/08/20 13:24:28;;;;;;;0.77;0.77;;;;;;;;;;5046997;28;20443;-74
2022/08/20 13:26:54;;;;;;;5.40;1.00;;;;;;;;;;5034409;28;20430;-72
2022/08/20 13:29:20;;;;;;;0.90;0.90;;;;;;;;;;5032665;28;20442;-72
2022/08/20 13:31:46;;;;;;;0.70;0.70;;;;;;;;;;5032891;28;20491;-69
2022/08/20 13:34:12;;;;;;;0.80;0.80;;;;;;;;;;5031779;28;21033;-71
2022/08/20 13:36:39;;;;;;;0.80;0.80;;;;;;;;;;5044259;28;20528;-75
2022/08/20 13:39:06;;;;;;;0.70;0.70;;;;;;;;;;5032462;28;20410;-69
2022/08/20 13:41:32;;;;;;;0.70;0.70;;;;;;;;;;5032901;28;20769;-76
2022/08/20 13:43:58;;;;;;;0.60;0.60;;;;;;;;;;5031851;28;20430;-72
2022/08/20 13:46:24;;;;;;;0.60;0.60;;;;;;;;;;5032931;28;20788;-73
2022/08/20 13:48:50;;;;;;;1.47;0.90;;;;;;;;;;5031098;28;20480;-72
2022/08/20 13:51:16;;;;;;;0.70;0.70;;;;;;;;;;5032654;28;20770;-70
2022/08/20 13:53:42;;;;;;;1.07;1.00;;;;;;;;;;5033138;28;20407;-71
2022/08/20 13:56:08;;;;;;;0.90;0.90;;;;;;;;;;5031219;28;20933;-77
2022/08/20 13:58:34;;;;;;;5.57;0.90;;;;;;;;;;5032337;28;20413;-70
2022/08/20 14:01:00;;;;;;;1.40;1.30;;;;;;;;;;5032546;28;20419;-70
2022/08/20 14:03:26;;;;;;;4.93;1.00;;;;;;;;;;5043568;28;20482;-77
2022/08/20 14:05:52;;;;;;;1.30;1.20;;;;;;;;;;5046088;28;20450;-70
2022/08/20 14:08:20;;;;;;;1.57;1.47;;;;;;;;;;5035804;28;20446;-77
2022/08/20 14:10:49;;;;;;;1.30;0.90;;;;;;;;;;5032283;28;20862;-71
2022/08/20 14:13:15;;;;;;;1.13;1.13;;;;;;;;;;5032377;28;20394;-77
2022/08/20 14:15:41;;;;;;;0.80;0.80;;;;;;;;;;5032273;28;20978;-76
2022/08/20 14:18:08;;;;;;;1.00;0.90;;;;;;;;;;5030757;28;20513;-73
2022/08/20 14:20:34;;;;;;;2.00;0.87;;;;;;;;;;5038545;28;20920;-71
2022/08/20 14:23:00;;;;;;;0.70;0.70;;;;;;;;;;5044565;28;20431;-71
2022/08/20 14:25:27;;;;;;;0.70;0.70;;;;;;;;;;5051462;28;20791;-71
2022/08/20 14:27:53;;;;;;;1.03;1.00;;;;;;;;;;5053441;28;20471;-70
2022/08/20 14:30:21;;;;;;;2.20;1.00;;;;;;;;;;5055304;28;20498;-70
2022/08/20 14:32:47;;;;;;;0.93;0.93;;;;;;;;;;5056296;28;20423;-71
2022/08/20 14:35:13;;;;;;;0.77;0.77;;;;;;;;;;5056073;28;20547;-76
2022/08/20 14:37:41;;;;;;;0.80;0.80;;;;;;;;;;5055938;28;20413;-71
2022/08/20 14:40:09;;;;;;;1.63;0.90;;;;;;;;;;5055962;28;20414;-71